sensor_id;sensor_type;location;lat;lon;timestamp;P1;durP1;ratioP1;P2;durP2;ratioP2
42590;SDS011;28218;53.342;-6.216;2024-03-08T00:01:05;53.08;;;27.35;;
42590;SDS011;28218;53.342;-6.216;2024-03-08T00:03:34;59.55;;;28.60;;
42590;SDS011;28218;53.342;-6.216;2024-03-08T00:06:02;65.50;;;29.63;;
42590;SDS011;28218;53.342;-6.216;2024-03-08T00:08:32;65.20;;;27.67;;
42590;SDS011;28218;53.342;-6.216;2024-03-08T00:11:01;61.42;;;27.85;;
42590;SDS011;28218;53.342;-6.216;2024-03-08T00:13:30;52.58;;;26.38;;
42590;SDS011;28218;53.342;-6.216;2024-03-08T00:15:58;58.58;;;26.17;;
42590;SDS011;28218;53.342;-6.216;2024-03-08T00:18:27;56.15;;;26.25;;
42590;SDS011;28218;53.342;-6.216;2024-03-08T00:20:55;49.92;;;25.42;;
42590;SDS011;28218;53.342;-6.216;2024-03-08T00:23:24;50.05;;;26.27;;
42590;SDS011;28218;53.342;-6.216;2024-03-08T00:25:52;52.92;;;26.30;;
42590;SDS011;28218;53.342;-6.216;2024-03-08T00:28:21;56.15;;;24.98;;
42590;SDS011;28218;53.342;-6.216;2024-03-08T00:30:53;52.95;;;24.75;;
42590;SDS011;28218;53.342;-6.216;2024-03-08T00:33:21;51.67;;;23.75;;
42590;SDS011;28218;53.342;-6.216;2024-03-08T00:35:49;45.42;;;23.90;;
42590;SDS011;28218;53.342;-6.216;2024-03-08T00:38:18;47.80;;;23.88;;
42590;SDS011;28218;53.342;-6.216;2024-03-08T00:40:46;48.47;;;24.55;;
42590;SDS011;28218;53.342;-6.216;2024-03-08T00:43:14;50.15;;;23.85;;
42590;SDS011;28218;53.342;-6.216;2024-03-08T00:45:43;55.55;;;24.33;;
42590;SDS011;28218;53.342;-6.216;2024-03-08T00:48:13;55.70;;;24.15;;
42590;SDS011;28218;53.342;-6.216;2024-03-08T00:50:41;62.17;;;26.08;;
42590;SDS011;28218;53.342;-6.216;2024-03-08T00:53:12;60.33;;;25.23;;
42590;SDS011;28218;53.342;-6.216;2024-03-08T00:55:40;52.40;;;24.83;;
42590;SDS011;28218;53.342;-6.216;2024-03-08T00:58:09;48.20;;;24.08;;
42590;SDS011;28218;53.342;-6.216;2024-03-08T01:00:37;59.40;;;27.75;;
42590;SDS011;28218;53.342;-6.216;2024-03-08T01:03:05;45.28;;;22.92;;
42590;SDS011;28218;53.342;-6.216;2024-03-08T01:05:35;51.05;;;23.17;;
42590;SDS011;28218;53.342;-6.216;2024-03-08T01:08:04;44.78;;;21.30;;
42590;SDS011;28218;53.342;-6.216;2024-03-08T01:10:34;45.17;;;22.25;;
42590;SDS011;28218;53.342;-6.216;2024-03-08T01:13:03;44.33;;;22.70;;
42590;SDS011;28218;53.342;-6.216;2024-03-08T01:15:32;46.20;;;23.65;;
42590;SDS011;28218;53.342;-6.216;2024-03-08T01:18:00;45.30;;;22.52;;
42590;SDS011;28218;53.342;-6.216;2024-03-08T01:20:28;48.10;;;22.70;;
42590;SDS011;28218;53.342;-6.216;2024-03-08T01:22:58;56.17;;;24.83;;
42590;SDS011;28218;53.342;-6.216;2024-03-08T01:25:27;53.15;;;23.25;;
42590;SDS011;28218;53.342;-6.216;2024-03-08T01:27:55;42.25;;;21.55;;
42590;SDS011;28218;53.342;-6.216;2024-03-08T01:30:23;43.13;;;22.80;;
42590;SDS011;28218;53.342;-6.216;2024-03-08T01:32:51;67.10;;;24.52;;
42590;SDS011;28218;53.342;-6.216;2024-03-08T01:35:20;46.40;;;22.80;;
42590;SDS011;28218;53.342;-6.216;2024-03-08T01:37:49;46.92;;;24.00;;
42590;SDS011;28218;53.342;-6.216;2024-03-08T01:40:18;48.15;;;22.35;;
42590;SDS011;28218;53.342;-6.216;2024-03-08T01:42:47;51.80;;;23.40;;
42590;SDS011;28218;53.342;-6.216;2024-03-08T01:45:15;46.70;;;21.70;;
42590;SDS011;28218;53.342;-6.216;2024-03-08T01:47:43;48.00;;;24.25;;
42590;SDS011;28218;53.342;-6.216;2024-03-08T01:50:14;48.25;;;22.70;;
42590;SDS011;28218;53.342;-6.216;2024-03-08T01:52:43;52.58;;;23.33;;
42590;SDS011;28218;53.342;-6.216;2024-03-08T01:55:12;45.78;;;23.27;;
42590;SDS011;28218;53.342;-6.216;2024-03-08T01:57:43;53.95;;;24.10;;
42590;SDS011;28218;53.342;-6.216;2024-03-08T02:00:12;51.38;;;25.10;;
42590;SDS011;28218;53.342;-6.216;2024-03-08T02:02:41;47.70;;;21.95;;
42590;SDS011;28218;53.342;-6.216;2024-03-08T02:05:11;46.53;;;22.65;;
42590;SDS011;28218;53.342;-6.216;2024-03-08T02:07:40;51.03;;;22.48;;
42590;SDS011;28218;53.342;-6.216;2024-03-08T02:10:10;47.80;;;21.88;;
42590;SDS011;28218;53.342;-6.216;2024-03-08T02:12:39;50.58;;;21.50;;
42590;SDS011;28218;53.342;-6.216;2024-03-08T02:15:08;35.92;;;20.52;;
42590;SDS011;28218;53.342;-6.216;2024-03-08T02:17:37;46.63;;;22.65;;
42590;SDS011;28218;53.342;-6.216;2024-03-08T02:20:06;40.88;;;20.05;;
42590;SDS011;28218;53.342;-6.216;2024-03-08T02:22:37;39.08;;;20.80;;
42590;SDS011;28218;53.342;-6.216;2024-03-08T02:25:06;46.65;;;22.23;;
42590;SDS011;28218;53.342;-6.216;2024-03-08T02:27:36;42.15;;;21.08;;
42590;SDS011;28218;53.342;-6.216;2024-03-08T02:30:05;42.78;;;21.45;;
42590;SDS011;28218;53.342;-6.216;2024-03-08T02:32:34;44.63;;;19.45;;
42590;SDS011;28218;53.342;-6.216;2024-03-08T02:35:02;43.45;;;21.10;;
42590;SDS011;28218;53.342;-6.216;2024-03-08T02:37:32;39.53;;;20.17;;
42590;SDS011;28218;53.342;-6.216;2024-03-08T02:40:02;38.83;;;20.95;;
42590;SDS011;28218;53.342;-6.216;2024-03-08T02:42:32;36.90;;;20.95;;
42590;SDS011;28218;53.342;-6.216;2024-03-08T02:45:00;43.08;;;20.65;;
42590;SDS011;28218;53.342;-6.216;2024-03-08T02:47:28;41.85;;;21.73;;
42590;SDS011;28218;53.342;-6.216;2024-03-08T02:49:58;40.42;;;21.50;;
42590;SDS011;28218;53.342;-6.216;2024-03-08T02:52:28;41.85;;;21.70;;
42590;SDS011;28218;53.342;-6.216;2024-03-08T02:54:57;38.90;;;20.45;;
42590;SDS011;28218;53.342;-6.216;2024-03-08T02:57:27;43.53;;;19.05;;
42590;SDS011;28218;53.342;-6.216;2024-03-08T02:59:55;41.05;;;19.58;;
42590;SDS011;28218;53.342;-6.216;2024-03-08T03:02:23;43.65;;;20.23;;
42590;SDS011;28218;53.342;-6.216;2024-03-08T03:04:51;44.38;;;21.02;;
42590;SDS011;28218;53.342;-6.216;2024-03-08T03:07:20;33.03;;;18.35;;
42590;SDS011;28218;53.342;-6.216;2024-03-08T03:09:48;38.60;;;20.40;;
42590;SDS011;28218;53.342;-6.216;2024-03-08T03:12:17;39.00;;;21.08;;
42590;SDS011;28218;53.342;-6.216;2024-03-08T03:14:47;38.22;;;20.42;;
42590;SDS011;28218;53.342;-6.216;2024-03-08T03:17:15;38.40;;;19.90;;
42590;SDS011;28218;53.342;-6.216;2024-03-08T03:19:44;41.42;;;21.38;;
42590;SDS011;28218;53.342;-6.216;2024-03-08T03:22:13;41.13;;;19.58;;
42590;SDS011;28218;53.342;-6.216;2024-03-08T03:24:42;32.70;;;18.80;;
42590;SDS011;28218;53.342;-6.216;2024-03-08T03:27:10;44.90;;;18.50;;
42590;SDS011;28218;53.342;-6.216;2024-03-08T03:29:39;43.38;;;18.58;;
42590;SDS011;28218;53.342;-6.216;2024-03-08T03:32:13;46.78;;;18.83;;
42590;SDS011;28218;53.342;-6.216;2024-03-08T03:34:43;49.60;;;20.27;;
42590;SDS011;28218;53.342;-6.216;2024-03-08T03:37:11;33.20;;;18.25;;
42590;SDS011;28218;53.342;-6.216;2024-03-08T03:39:40;34.30;;;18.52;;
42590;SDS011;28218;53.342;-6.216;2024-03-08T03:42:15;35.60;;;19.65;;
42590;SDS011;28218;53.342;-6.216;2024-03-08T03:44:44;40.33;;;19.70;;
42590;SDS011;28218;53.342;-6.216;2024-03-08T03:47:15;31.17;;;17.67;;
42590;SDS011;28218;53.342;-6.216;2024-03-08T03:49:44;30.95;;;18.38;;
42590;SDS011;28218;53.342;-6.216;2024-03-08T03:52:12;38.40;;;18.85;;
42590;SDS011;28218;53.342;-6.216;2024-03-08T03:54:42;33.65;;;16.88;;
42590;SDS011;28218;53.342;-6.216;2024-03-08T03:57:10;43.53;;;18.48;;
42590;SDS011;28218;53.342;-6.216;2024-03-08T03:59:38;29.00;;;17.35;;
42590;SDS011;28218;53.342;-6.216;2024-03-08T04:02:08;34.65;;;19.45;;
42590;SDS011;28218;53.342;-6.216;2024-03-08T04:04:38;34.67;;;18.58;;
42590;SDS011;28218;53.342;-6.216;2024-03-08T04:07:06;37.28;;;18.25;;
42590;SDS011;28218;53.342;-6.216;2024-03-08T04:09:36;33.40;;;18.17;;
42590;SDS011;28218;53.342;-6.216;2024-03-08T04:12:04;31.70;;;17.98;;
42590;SDS011;28218;53.342;-6.216;2024-03-08T04:14:33;37.40;;;17.58;;
42590;SDS011;28218;53.342;-6.216;2024-03-08T04:17:02;31.77;;;17.42;;
42590;SDS011;28218;53.342;-6.216;2024-03-08T04:19:30;40.13;;;18.08;;
42590;SDS011;28218;53.342;-6.216;2024-03-08T04:22:00;37.08;;;17.23;;
42590;SDS011;28218;53.342;-6.216;2024-03-08T04:24:28;35.28;;;15.77;;
42590;SDS011;28218;53.342;-6.216;2024-03-08T04:26:57;36.03;;;17.65;;
42590;SDS011;28218;53.342;-6.216;2024-03-08T04:29:25;28.73;;;17.42;;
42590;SDS011;28218;53.342;-6.216;2024-03-08T04:31:54;35.72;;;18.85;;
42590;SDS011;28218;53.342;-6.216;2024-03-08T04:34:22;44.58;;;18.38;;
42590;SDS011;28218;53.342;-6.216;2024-03-08T04:36:50;32.95;;;16.63;;
42590;SDS011;28218;53.342;-6.216;2024-03-08T04:39:20;39.25;;;17.95;;
42590;SDS011;28218;53.342;-6.216;2024-03-08T04:41:49;34.03;;;16.00;;
42590;SDS011;28218;53.342;-6.216;2024-03-08T04:44:18;28.73;;;15.73;;
42590;SDS011;28218;53.342;-6.216;2024-03-08T04:46:46;36.55;;;16.42;;
42590;SDS011;28218;53.342;-6.216;2024-03-08T04:49:14;38.60;;;18.02;;
42590;SDS011;28218;53.342;-6.216;2024-03-08T04:51:43;31.05;;;15.48;;
42590;SDS011;28218;53.342;-6.216;2024-03-08T04:54:12;31.10;;;16.42;;
42590;SDS011;28218;53.342;-6.216;2024-03-08T04:56:42;31.85;;;15.88;;
42590;SDS011;28218;53.342;-6.216;2024-03-08T04:59:10;34.22;;;16.40;;
42590;SDS011;28218;53.342;-6.216;2024-03-08T05:01:39;31.77;;;16.48;;
42590;SDS011;28218;53.342;-6.216;2024-03-08T05:04:07;38.40;;;15.57;;
42590;SDS011;28218;53.342;-6.216;2024-03-08T05:06:36;40.22;;;18.17;;
42590;SDS011;28218;53.342;-6.216;2024-03-08T05:09:04;40.47;;;16.98;;
42590;SDS011;28218;53.342;-6.216;2024-03-08T05:11:42;41.50;;;17.13;;
42590;SDS011;28218;53.342;-6.216;2024-03-08T05:14:11;42.17;;;16.90;;
42590;SDS011;28218;53.342;-6.216;2024-03-08T05:16:43;39.38;;;17.15;;
42590;SDS011;28218;53.342;-6.216;2024-03-08T05:19:15;39.85;;;18.15;;
42590;SDS011;28218;53.342;-6.216;2024-03-08T05:21:45;37.47;;;17.92;;
42590;SDS011;28218;53.342;-6.216;2024-03-08T05:24:13;37.28;;;16.45;;
42590;SDS011;28218;53.342;-6.216;2024-03-08T05:26:44;41.47;;;16.63;;
42590;SDS011;28218;53.342;-6.216;2024-03-08T05:29:14;36.08;;;17.60;;
42590;SDS011;28218;53.342;-6.216;2024-03-08T05:31:45;39.13;;;17.35;;
42590;SDS011;28218;53.342;-6.216;2024-03-08T05:34:13;34.75;;;17.55;;
42590;SDS011;28218;53.342;-6.216;2024-03-08T05:36:42;34.78;;;17.88;;
42590;SDS011;28218;53.342;-6.216;2024-03-08T05:39:11;35.72;;;16.25;;
42590;SDS011;28218;53.342;-6.216;2024-03-08T05:41:41;32.30;;;16.67;;
42590;SDS011;28218;53.342;-6.216;2024-03-08T05:44:10;37.78;;;16.45;;
42590;SDS011;28218;53.342;-6.216;2024-03-08T05:46:39;36.70;;;17.33;;
42590;SDS011;28218;53.342;-6.216;2024-03-08T05:49:08;26.98;;;15.65;;
42590;SDS011;28218;53.342;-6.216;2024-03-08T05:51:39;39.40;;;17.02;;
42590;SDS011;28218;53.342;-6.216;2024-03-08T05:54:08;31.15;;;15.85;;
42590;SDS011;28218;53.342;-6.216;2024-03-08T05:56:41;35.97;;;16.83;;
42590;SDS011;28218;53.342;-6.216;2024-03-08T05:59:13;44.33;;;17.80;;
42590;SDS011;28218;53.342;-6.216;2024-03-08T06:01:41;48.17;;;17.38;;
42590;SDS011;28218;53.342;-6.216;2024-03-08T06:04:10;43.22;;;18.67;;
42590;SDS011;28218;53.342;-6.216;2024-03-08T06:06:38;40.75;;;16.70;;
42590;SDS011;28218;53.342;-6.216;2024-03-08T06:09:07;38.53;;;16.65;;
42590;SDS011;28218;53.342;-6.216;2024-03-08T06:11:39;46.30;;;17.23;;
42590;SDS011;28218;53.342;-6.216;2024-03-08T06:14:09;44.20;;;17.65;;
42590;SDS011;28218;53.342;-6.216;2024-03-08T06:16:39;42.53;;;17.75;;
42590;SDS011;28218;53.342;-6.216;2024-03-08T06:19:07;39.00;;;18.73;;
42590;SDS011;28218;53.342;-6.216;2024-03-08T06:21:35;36.78;;;16.52;;
42590;SDS011;28218;53.342;-6.216;2024-03-08T06:24:03;40.22;;;18.33;;
42590;SDS011;28218;53.342;-6.216;2024-03-08T06:26:32;51.35;;;18.27;;
42590;SDS011;28218;53.342;-6.216;2024-03-08T06:29:04;45.15;;;18.15;;
42590;SDS011;28218;53.342;-6.216;2024-03-08T06:31:33;41.13;;;18.42;;
42590;SDS011;28218;53.342;-6.216;2024-03-08T06:34:07;42.05;;;18.20;;
42590;SDS011;28218;53.342;-6.216;2024-03-08T06:36:36;31.38;;;16.30;;
42590;SDS011;28218;53.342;-6.216;2024-03-08T06:39:05;34.30;;;17.27;;
42590;SDS011;28218;53.342;-6.216;2024-03-08T06:41:36;31.70;;;16.00;;
42590;SDS011;28218;53.342;-6.216;2024-03-08T06:44:05;34.85;;;16.85;;
42590;SDS011;28218;53.342;-6.216;2024-03-08T06:46:34;33.95;;;17.48;;
42590;SDS011;28218;53.342;-6.216;2024-03-08T06:49:02;40.70;;;20.35;;
42590;SDS011;28218;53.342;-6.216;2024-03-08T06:51:33;36.97;;;18.83;;
42590;SDS011;28218;53.342;-6.216;2024-03-08T06:54:01;34.63;;;15.50;;
42590;SDS011;28218;53.342;-6.216;2024-03-08T06:56:35;32.60;;;16.45;;
42590;SDS011;28218;53.342;-6.216;2024-03-08T06:59:04;33.50;;;17.25;;
42590;SDS011;28218;53.342;-6.216;2024-03-08T07:01:33;32.88;;;16.20;;
42590;SDS011;28218;53.342;-6.216;2024-03-08T07:04:03;29.33;;;15.73;;
42590;SDS011;28218;53.342;-6.216;2024-03-08T07:06:34;31.52;;;16.38;;
42590;SDS011;28218;53.342;-6.216;2024-03-08T07:09:03;34.22;;;16.83;;
42590;SDS011;28218;53.342;-6.216;2024-03-08T07:11:32;30.75;;;15.85;;
42590;SDS011;28218;53.342;-6.216;2024-03-08T07:14:01;33.85;;;16.70;;
42590;SDS011;28218;53.342;-6.216;2024-03-08T07:16:32;31.67;;;14.70;;
42590;SDS011;28218;53.342;-6.216;2024-03-08T07:19:01;27.60;;;16.35;;
42590;SDS011;28218;53.342;-6.216;2024-03-08T07:21:31;30.20;;;15.68;;
42590;SDS011;28218;53.342;-6.216;2024-03-08T07:24:01;36.78;;;16.08;;
42590;SDS011;28218;53.342;-6.216;2024-03-08T07:26:51;36.13;;;15.70;;
42590;SDS011;28218;53.342;-6.216;2024-03-08T07:29:19;31.38;;;15.93;;
42590;SDS011;28218;53.342;-6.216;2024-03-08T07:31:47;35.33;;;15.38;;
42590;SDS011;28218;53.342;-6.216;2024-03-08T07:34:22;37.22;;;15.77;;
42590;SDS011;28218;53.342;-6.216;2024-03-08T07:36:50;39.72;;;16.52;;
42590;SDS011;28218;53.342;-6.216;2024-03-08T07:39:20;40.40;;;16.38;;
42590;SDS011;28218;53.342;-6.216;2024-03-08T07:44:19;39.72;;;16.20;;
42590;SDS011;28218;53.342;-6.216;2024-03-08T07:46:47;39.45;;;16.63;;
42590;SDS011;28218;53.342;-6.216;2024-03-08T07:49:15;35.97;;;15.07;;
42590;SDS011;28218;53.342;-6.216;2024-03-08T07:51:44;29.83;;;15.48;;
42590;SDS011;28218;53.342;-6.216;2024-03-08T07:54:13;31.67;;;15.45;;
42590;SDS011;28218;53.342;-6.216;2024-03-08T07:56:42;43.47;;;21.00;;
42590;SDS011;28218;53.342;-6.216;2024-03-08T07:59:11;30.98;;;16.48;;
42590;SDS011;28218;53.342;-6.216;2024-03-08T08:01:39;36.97;;;16.83;;
42590;SDS011;28218;53.342;-6.216;2024-03-08T08:04:08;31.17;;;16.13;;
42590;SDS011;28218;53.342;-6.216;2024-03-08T08:06:39;31.35;;;17.30;;
42590;SDS011;28218;53.342;-6.216;2024-03-08T08:09:08;39.10;;;17.02;;
42590;SDS011;28218;53.342;-6.216;2024-03-08T08:11:40;30.63;;;15.63;;
42590;SDS011;28218;53.342;-6.216;2024-03-08T08:14:10;34.47;;;15.27;;
42590;SDS011;28218;53.342;-6.216;2024-03-08T08:16:39;34.47;;;15.63;;
42590;SDS011;28218;53.342;-6.216;2024-03-08T08:19:09;29.73;;;15.63;;
42590;SDS011;28218;53.342;-6.216;2024-03-08T08:24:08;32.33;;;15.18;;
42590;SDS011;28218;53.342;-6.216;2024-03-08T08:26:37;36.45;;;15.50;;
42590;SDS011;28218;53.342;-6.216;2024-03-08T08:29:09;36.92;;;16.63;;
42590;SDS011;28218;53.342;-6.216;2024-03-08T08:31:38;30.60;;;15.82;;
42590;SDS011;28218;53.342;-6.216;2024-03-08T08:34:08;35.00;;;16.30;;
42590;SDS011;28218;53.342;-6.216;2024-03-08T08:36:38;30.73;;;15.93;;
42590;SDS011;28218;53.342;-6.216;2024-03-08T08:39:06;32.63;;;16.38;;
42590;SDS011;28218;53.342;-6.216;2024-03-08T08:41:40;33.67;;;17.63;;
42590;SDS011;28218;53.342;-6.216;2024-03-08T08:44:10;31.77;;;16.60;;
42590;SDS011;28218;53.342;-6.216;2024-03-08T08:46:42;37.70;;;18.40;;
42590;SDS011;28218;53.342;-6.216;2024-03-08T08:49:10;41.08;;;18.40;;
42590;SDS011;28218;53.342;-6.216;2024-03-08T08:51:41;56.40;;;21.55;;
42590;SDS011;28218;53.342;-6.216;2024-03-08T08:54:09;42.42;;;19.85;;
42590;SDS011;28218;53.342;-6.216;2024-03-08T08:56:41;45.00;;;20.02;;
42590;SDS011;28218;53.342;-6.216;2024-03-08T08:59:11;48.83;;;20.38;;
42590;SDS011;28218;53.342;-6.216;2024-03-08T09:01:40;43.42;;;20.50;;
42590;SDS011;28218;53.342;-6.216;2024-03-08T09:04:08;54.90;;;23.35;;
42590;SDS011;28218;53.342;-6.216;2024-03-08T09:06:38;41.47;;;20.58;;
42590;SDS011;28218;53.342;-6.216;2024-03-08T09:09:08;49.40;;;21.02;;
42590;SDS011;28218;53.342;-6.216;2024-03-08T09:11:37;37.50;;;19.92;;
42590;SDS011;28218;53.342;-6.216;2024-03-08T09:14:08;41.20;;;20.85;;
42590;SDS011;28218;53.342;-6.216;2024-03-08T09:16:40;43.10;;;21.93;;
42590;SDS011;28218;53.342;-6.216;2024-03-08T09:19:08;44.33;;;20.27;;
42590;SDS011;28218;53.342;-6.216;2024-03-08T09:21:37;41.75;;;21.73;;
42590;SDS011;28218;53.342;-6.216;2024-03-08T09:24:06;45.08;;;22.55;;
42590;SDS011;28218;53.342;-6.216;2024-03-08T09:26:34;53.38;;;23.67;;
42590;SDS011;28218;53.342;-6.216;2024-03-08T09:29:03;39.92;;;21.52;;
42590;SDS011;28218;53.342;-6.216;2024-03-08T09:31:33;45.17;;;22.65;;
42590;SDS011;28218;53.342;-6.216;2024-03-08T09:34:03;40.30;;;21.48;;
42590;SDS011;28218;53.342;-6.216;2024-03-08T09:36:31;38.20;;;21.35;;
42590;SDS011;28218;53.342;-6.216;2024-03-08T09:39:00;49.60;;;23.63;;
42590;SDS011;28218;53.342;-6.216;2024-03-08T09:41:29;44.80;;;22.63;;
42590;SDS011;28218;53.342;-6.216;2024-03-08T09:43:58;46.63;;;23.90;;
42590;SDS011;28218;53.342;-6.216;2024-03-08T09:46:27;44.88;;;24.15;;
42590;SDS011;28218;53.342;-6.216;2024-03-08T09:48:55;46.50;;;22.27;;
42590;SDS011;28218;53.342;-6.216;2024-03-08T09:51:27;51.35;;;22.25;;
42590;SDS011;28218;53.342;-6.216;2024-03-08T09:53:57;52.92;;;24.55;;
42590;SDS011;28218;53.342;-6.216;2024-03-08T09:56:29;43.95;;;24.05;;
42590;SDS011;28218;53.342;-6.216;2024-03-08T09:59:00;47.10;;;23.88;;
42590;SDS011;28218;53.342;-6.216;2024-03-08T10:01:59;46.03;;;22.83;;
42590;SDS011;28218;53.342;-6.216;2024-03-08T10:04:29;43.30;;;22.80;;
42590;SDS011;28218;53.342;-6.216;2024-03-08T10:07:00;50.50;;;24.15;;
42590;SDS011;28218;53.342;-6.216;2024-03-08T10:09:29;41.03;;;23.17;;
42590;SDS011;28218;53.342;-6.216;2024-03-08T10:11:57;44.90;;;21.67;;
42590;SDS011;28218;53.342;-6.216;2024-03-08T10:14:25;34.17;;;20.83;;
42590;SDS011;28218;53.342;-6.216;2024-03-08T10:16:54;45.00;;;21.48;;
42590;SDS011;28218;53.342;-6.216;2024-03-08T10:19:26;48.88;;;19.98;;
42590;SDS011;28218;53.342;-6.216;2024-03-08T10:21:56;45.75;;;20.27;;
42590;SDS011;28218;53.342;-6.216;2024-03-08T10:24:27;36.58;;;20.83;;
42590;SDS011;28218;53.342;-6.216;2024-03-08T10:26:58;42.42;;;21.17;;
42590;SDS011;28218;53.342;-6.216;2024-03-08T10:29:27;45.10;;;23.20;;
42590;SDS011;28218;53.342;-6.216;2024-03-08T10:31:55;57.95;;;24.20;;
42590;SDS011;28218;53.342;-6.216;2024-03-08T10:34:24;41.65;;;21.95;;
42590;SDS011;28218;53.342;-6.216;2024-03-08T10:36:53;43.97;;;22.10;;
42590;SDS011;28218;53.342;-6.216;2024-03-08T10:39:27;39.15;;;21.52;;
42590;SDS011;28218;53.342;-6.216;2024-03-08T10:42:02;48.25;;;23.00;;
42590;SDS011;28218;53.342;-6.216;2024-03-08T10:44:36;50.97;;;23.25;;
42590;SDS011;28218;53.342;-6.216;2024-03-08T10:47:14;41.50;;;22.40;;
42590;SDS011;28218;53.342;-6.216;2024-03-08T10:49:50;45.28;;;23.08;;
42590;SDS011;28218;53.342;-6.216;2024-03-08T10:52:22;43.25;;;23.02;;
42590;SDS011;28218;53.342;-6.216;2024-03-08T10:54:53;42.55;;;22.27;;
42590;SDS011;28218;53.342;-6.216;2024-03-08T10:57:23;40.85;;;23.77;;
42590;SDS011;28218;53.342;-6.216;2024-03-08T10:59:53;48.72;;;24.92;;
42590;SDS011;28218;53.342;-6.216;2024-03-08T11:02:25;44.53;;;23.67;;
42590;SDS011;28218;53.342;-6.216;2024-03-08T11:04:54;44.78;;;22.08;;
42590;SDS011;28218;53.342;-6.216;2024-03-08T11:07:24;42.03;;;22.40;;
42590;SDS011;28218;53.342;-6.216;2024-03-08T11:09:55;42.97;;;22.60;;
42590;SDS011;28218;53.342;-6.216;2024-03-08T11:12:25;56.80;;;23.95;;
42590;SDS011;28218;53.342;-6.216;2024-03-08T11:14:56;43.45;;;23.15;;
42590;SDS011;28218;53.342;-6.216;2024-03-08T11:17:40;47.50;;;23.42;;
42590;SDS011;28218;53.342;-6.216;2024-03-08T11:20:13;47.58;;;23.08;;
42590;SDS011;28218;53.342;-6.216;2024-03-08T11:22:47;39.30;;;24.23;;
42590;SDS011;28218;53.342;-6.216;2024-03-08T11:25:37;45.15;;;23.90;;
42590;SDS011;28218;53.342;-6.216;2024-03-08T11:28:14;41.53;;;23.02;;
42590;SDS011;28218;53.342;-6.216;2024-03-08T11:30:47;50.90;;;24.60;;
42590;SDS011;28218;53.342;-6.216;2024-03-08T11:33:51;46.97;;;23.25;;
42590;SDS011;28218;53.342;-6.216;2024-03-08T11:36:21;42.10;;;23.40;;
42590;SDS011;28218;53.342;-6.216;2024-03-08T11:38:51;45.78;;;22.45;;
42590;SDS011;28218;53.342;-6.216;2024-03-08T11:41:24;46.05;;;22.27;;
42590;SDS011;28218;53.342;-6.216;2024-03-08T11:44:01;40.17;;;22.40;;
42590;SDS011;28218;53.342;-6.216;2024-03-08T11:46:33;49.60;;;22.63;;
42590;SDS011;28218;53.342;-6.216;2024-03-08T11:49:01;46.42;;;23.95;;
42590;SDS011;28218;53.342;-6.216;2024-03-08T11:51:32;49.70;;;22.88;;
42590;SDS011;28218;53.342;-6.216;2024-03-08T11:54:01;48.65;;;23.35;;
42590;SDS011;28218;53.342;-6.216;2024-03-08T11:56:31;46.10;;;24.83;;
42590;SDS011;28218;53.342;-6.216;2024-03-08T11:59:00;46.95;;;22.83;;
42590;SDS011;28218;53.342;-6.216;2024-03-08T12:01:28;49.00;;;23.70;;
42590;SDS011;28218;53.342;-6.216;2024-03-08T12:03:58;40.72;;;23.17;;
42590;SDS011;28218;53.342;-6.216;2024-03-08T12:06:36;51.35;;;24.00;;
42590;SDS011;28218;53.342;-6.216;2024-03-08T12:09:09;47.42;;;22.50;;
42590;SDS011;28218;53.342;-6.216;2024-03-08T12:11:39;45.10;;;24.58;;
42590;SDS011;28218;53.342;-6.216;2024-03-08T12:14:07;49.15;;;23.73;;
42590;SDS011;28218;53.342;-6.216;2024-03-08T12:16:36;49.03;;;23.60;;
42590;SDS011;28218;53.342;-6.216;2024-03-08T12:19:05;55.13;;;22.70;;
42590;SDS011;28218;53.342;-6.216;2024-03-08T12:21:33;41.63;;;23.65;;
42590;SDS011;28218;53.342;-6.216;2024-03-08T12:24:04;41.05;;;23.83;;
42590;SDS011;28218;53.342;-6.216;2024-03-08T12:26:36;45.67;;;23.73;;
42590;SDS011;28218;53.342;-6.216;2024-03-08T12:29:15;50.72;;;24.35;;
42590;SDS011;28218;53.342;-6.216;2024-03-08T12:31:46;46.95;;;23.27;;
42590;SDS011;28218;53.342;-6.216;2024-03-08T12:34:16;46.20;;;23.58;;
42590;SDS011;28218;53.342;-6.216;2024-03-08T12:36:48;51.15;;;22.20;;
42590;SDS011;28218;53.342;-6.216;2024-03-08T12:39:18;44.17;;;23.48;;
42590;SDS011;28218;53.342;-6.216;2024-03-08T12:41:54;49.80;;;23.73;;
42590;SDS011;28218;53.342;-6.216;2024-03-08T12:44:25;46.20;;;22.58;;
42590;SDS011;28218;53.342;-6.216;2024-03-08T12:46:54;48.90;;;22.42;;
42590;SDS011;28218;53.342;-6.216;2024-03-08T12:49:26;43.20;;;22.67;;
42590;SDS011;28218;53.342;-6.216;2024-03-08T12:51:54;49.20;;;23.15;;
42590;SDS011;28218;53.342;-6.216;2024-03-08T12:54:22;45.47;;;21.65;;
42590;SDS011;28218;53.342;-6.216;2024-03-08T12:56:51;46.80;;;22.83;;
42590;SDS011;28218;53.342;-6.216;2024-03-08T12:59:21;41.67;;;21.15;;
42590;SDS011;28218;53.342;-6.216;2024-03-08T13:01:52;40.47;;;21.63;;
42590;SDS011;28218;53.342;-6.216;2024-03-08T13:04:20;42.65;;;22.13;;
42590;SDS011;28218;53.342;-6.216;2024-03-08T13:06:49;44.47;;;23.08;;
42590;SDS011;28218;53.342;-6.216;2024-03-08T13:09:21;48.15;;;22.63;;
42590;SDS011;28218;53.342;-6.216;2024-03-08T13:11:50;60.88;;;23.25;;
42590;SDS011;28218;53.342;-6.216;2024-03-08T13:14:20;47.72;;;21.15;;
42590;SDS011;28218;53.342;-6.216;2024-03-08T13:16:48;55.92;;;26.98;;
42590;SDS011;28218;53.342;-6.216;2024-03-08T13:19:20;54.97;;;26.77;;
42590;SDS011;28218;53.342;-6.216;2024-03-08T13:21:49;51.38;;;27.42;;
42590;SDS011;28218;53.342;-6.216;2024-03-08T13:24:17;53.25;;;25.90;;
42590;SDS011;28218;53.342;-6.216;2024-03-08T13:26:47;60.33;;;28.90;;
42590;SDS011;28218;53.342;-6.216;2024-03-08T13:29:16;55.00;;;27.00;;
42590;SDS011;28218;53.342;-6.216;2024-03-08T13:31:45;57.20;;;27.48;;
42590;SDS011;28218;53.342;-6.216;2024-03-08T13:34:19;56.03;;;25.55;;
42590;SDS011;28218;53.342;-6.216;2024-03-08T13:36:54;52.20;;;24.38;;
42590;SDS011;28218;53.342;-6.216;2024-03-08T13:39:27;50.70;;;21.95;;
42590;SDS011;28218;53.342;-6.216;2024-03-08T13:41:57;48.77;;;23.30;;
42590;SDS011;28218;53.342;-6.216;2024-03-08T13:44:26;48.90;;;23.27;;
42590;SDS011;28218;53.342;-6.216;2024-03-08T13:46:54;46.05;;;23.63;;
42590;SDS011;28218;53.342;-6.216;2024-03-08T13:49:26;45.13;;;22.73;;
42590;SDS011;28218;53.342;-6.216;2024-03-08T13:51:54;43.22;;;22.90;;
42590;SDS011;28218;53.342;-6.216;2024-03-08T13:54:25;46.17;;;23.53;;
42590;SDS011;28218;53.342;-6.216;2024-03-08T13:56:57;40.53;;;21.20;;
42590;SDS011;28218;53.342;-6.216;2024-03-08T13:59:25;35.83;;;19.83;;
42590;SDS011;28218;53.342;-6.216;2024-03-08T14:01:55;36.63;;;19.92;;
42590;SDS011;28218;53.342;-6.216;2024-03-08T14:04:27;46.33;;;21.55;;
42590;SDS011;28218;53.342;-6.216;2024-03-08T14:06:55;45.83;;;21.80;;
42590;SDS011;28218;53.342;-6.216;2024-03-08T14:09:30;41.22;;;19.45;;
42590;SDS011;28218;53.342;-6.216;2024-03-08T14:11:58;37.03;;;20.27;;
42590;SDS011;28218;53.342;-6.216;2024-03-08T14:14:27;39.85;;;20.90;;
42590;SDS011;28218;53.342;-6.216;2024-03-08T14:16:55;40.47;;;20.77;;
42590;SDS011;28218;53.342;-6.216;2024-03-08T14:19:26;45.45;;;21.20;;
42590;SDS011;28218;53.342;-6.216;2024-03-08T14:21:54;44.03;;;20.50;;
42590;SDS011;28218;53.342;-6.216;2024-03-08T14:24:22;42.38;;;21.33;;
42590;SDS011;28218;53.342;-6.216;2024-03-08T14:26:51;42.20;;;19.48;;
42590;SDS011;28218;53.342;-6.216;2024-03-08T14:29:20;45.28;;;20.25;;